WEATHER DATA

YESTERDAY
Time Temp. Dewp. Hum. Wind dir Wind speed Wind gust Bar. 1h Prec. 24h Prec.
00:05 15.2 13.7 91 137 0.6 1.4 1004.2 0.0000 0.0000
00:15 15.1 13.6 91 144 0.6 1.4 1004.2 0.0000 0.0000
00:24 15.1 13.6 91 120 0.6 1.1 1004.1 0.0000 0.0000
00:41 15 13.5 91 140 0.6 1.4 1004.1 0.3030 0.3000
00:51 15 13.5 91 125 0.3 0.8 1004 1.0100 1.0000
01:00 14.9 13.6 92 141 0.6 1.1 1003.8 1.1110 1.4000
01:10 14.9 13.6 92 122 0.3 0.8 1003.8 2.0200 3.0000
01:21 14.8 13.5 92 270 0.3 0.6 1003.6 4.6460 6.1000
01:41 14.8 13.7 93 270 0.3 1.1 1004.2 0.5050 6.6000
01:51 14.8 13.7 93 225 0.3 0.6 1004.1 0.0000 6.6000
02:01 14.7 13.6 93 270 0.3 1.1 1004.3 0.0000 6.6000
02:11 14.6 13.5 93 228 0.3 1.1 1004.3 0.0000 6.6000
02:21 14.4 13.3 93 227 0.6 1.4 1004.3 0.0000 6.6000
02:41 14.1 12.8 92 225 0.3 1.1 1004.5 0.0000 6.6000
02:51 13.9 12.6 92 161 0.3 0.8 1004.5 0.0000 6.6000
03:01 13.8 12.5 92 165 0.3 0.8 1004.6 0.0000 6.6000
03:12 13.6 12.3 92 135 0.3 0.6 1004.5 0.0000 6.6000
03:22 13.4 12.1 92 221 0.6 1.9 1004.5 0.0000 6.6000
03:42 13.2 12.1 93 220 0.3 1.1 1004.5 0.0000 6.6000
03:52 13.1 12 93 140 0.3 0.8 1004.5 0.0000 6.6000
04:02 13 11.9 93 135 0.3 0.8 1004.6 0.0000 6.6000
04:12 13 11.9 93 135 0.3 0.8 1004.7 0.0000 6.6000
04:22 12.9 11.8 93 154 0.3 0.8 1004.8 0.0000 6.6000
04:42 13.1 12.2 94 270 0.3 1.4 1004.9 0.0000 6.6000
04:53 13.3 12.4 94 270 0.3 0.8 1004.9 0.0000 6.6000
05:02 13.4 12.6 95 214 0.6 1.7 1005.1 0.0000 6.6000
05:12 13.6 12.8 95 225 0.3 0.8 1005 0.0000 6.6000
05:22 13.7 12.9 95 201 0.3 0.6 1005.1 0.0000 6.6000
05:33 13.9 13.1 95 212 0.3 0.8 1005.1 0.0000 6.6000
05:43 14 13.2 95 228 0.3 1.1 1005.1 0.0000 6.6000
05:52 14.2 13.4 95 186 0.3 0.6 1005.1 0.0000 6.6000
06:03 14.3 13.5 95 270 0.3 0.6 1005.4 0.0000 6.6000
06:13 14.4 13.6 95 270 0.3 0.8 1005.6 0.0000 6.6000
06:23 14.5 13.7 95 231 0.6 1.1 1005.3 0.0000 6.6000
06:33 14.6 13.8 95 242 0.6 1.7 1005.6 0.0000 6.6000
06:43 14.7 13.9 95 239 0.3 1.1 1005.7 0.0000 6.6000
06:53 14.9 14.1 95 230 0.6 1.9 1005.8 0.0000 6.6000
07:03 15 14.2 95 270 0.3 1.4 1005.9 0.0000 6.6000
07:14 15.5 14.5 94 270 0.3 1.1 1006.1 0.0000 6.6000
07:23 15.7 14.7 94 270 0.3 0.8 1006 0.0000 6.6000
07:33 15.8 14.7 93 270 0.3 0.8 1006.1 0.0000 6.6000
07:43 15.9 14.8 93 270 0.6 1.4 1006.3 0.0000 6.6000
07:54 16 14.7 92 270 0.3 1.4 1006.3 0.0000 6.6000
08:04 16.3 15 92 270 0.6 1.9 1006.4 0.0000 6.6000
08:13 16.5 15 91 293 0.6 1.1 1006.4 0.0000 6.6000
08:24 16.7 15.1 90 270 0.6 1.4 1006.5 0.0000 6.6000
08:34 16.8 14.8 88 270 0.8 1.7 1006.5 0.0000 6.6000
08:44 17.1 15.1 88 227 0.8 2.5 1006.6 0.0000 6.6000
08:54 17.4 15 86 239 0.8 1.9 1006.9 0.0000 6.6000
09:04 17.2 14.5 84 329 0.3 1.7 1006.9 0.0000 6.6000
09:14 17.5 14.8 84 243 0.8 2.2 1006.8 0.0000 6.6000
09:35 17.8 14.5 81 246 0.6 2.5 1007.2 0.0000 6.6000
09:45 18 13.7 76 245 1.1 2.5 1007.3 0.0000 6.6000
09:54 18 13.3 74 235 1.1 3.1 1007.4 0.0000 6.6000
10:04 18.1 13.6 75 242 0.8 2.5 1007.7 0.0000 6.6000
10:15 17.9 12.6 71 239 1.1 3.3 1007.7 0.0000 6.6000
10:25 17.9 12.8 72 250 0.6 3.3 1007.8 0.0000 6.6000
10:35 18.1 12.8 71 229 1.1 3.3 1007.9 0.0000 6.6000
10:45 18 12.5 70 270 0.6 1.7 1008 0.0000 6.6000
10:55 18.2 12.4 69 259 0.8 2.2 1008.2 0.0000 6.6000
11:05 18.4 12.4 68 252 0.8 2.5 1008.3 0.0000 6.6000
11:15 18.7 12.7 68 296 0.6 1.9 1008.3 0.0000 6.6000
11:26 19.2 12.5 65 229 1.1 2.8 1008.2 0.0000 6.6000
11:35 19.1 12.4 65 246 0.8 2.5 1008.2 0.0000 6.6000
11:45 18.8 12.1 65 233 0.8 2.2 1008.4 0.0000 6.6000
11:55 18.9 12.2 65 270 0.8 2.2 1008.5 0.0000 6.6000
12:06 18.5 12.3 67 253 0.6 2.2 1008.6 0.0000 6.6000
12:16 18.3 11.6 65 284 0.8 2.2 1008.6 0.0000 6.6000
12:36 18.5 12.3 67 228 0.8 2.5 1008.7 0.0000 6.6000
12:46 19 12.3 65 245 0.8 2.8 1008.7 0.0000 6.6000
12:56 19 12 64 248 1.1 3.6 1008.7 0.0000 6.6000
13:06 19 12.5 66 252 1.1 3.3 1008.8 0.0000 6.6000
13:26 19.4 12.4 64 253 1.4 2.8 1008.9 0.0000 6.6000
13:36 19.7 13.2 66 240 0.8 1.9 1008.9 0.0000 6.6000
13:47 20.2 12.9 63 214 1.1 3.6 1009.1 0.0000 6.6000
13:57 20.4 12.9 62 198 1.1 3.6 1008.9 0.0000 6.6000
14:06 20.8 13 61 236 1.1 3.6 1009 0.0000 6.6000
14:16 20.9 12.9 60 252 1.4 3.6 1009.2 0.0000 6.6000
14:27 20.4 12.6 61 270 1.1 3.1 1009 0.0000 6.6000
14:37 20.4 12.6 61 240 1.1 3.1 1009 0.0000 6.6000
14:47 20.4 12.9 62 257 0.8 2.8 1009.1 0.0000 6.6000
14:57 20 12.5 62 270 1.1 2.8 1009.1 0.0000 6.6000
15:07 20.1 13.1 64 231 0.8 2.2 1009.2 0.0000 6.6000
15:17 20.3 12.8 62 245 1.4 3.9 1009.3 0.0000 6.6000
15:27 19.7 12.5 63 218 1.1 4.4 1009.5 0.0000 6.6000
15:37 20.2 13.2 64 235 1.1 3.3 1009.7 0.0000 6.6000
15:47 19.9 12.9 64 270 0.8 1.9 1009.7 0.0000 6.6000
15:57 20.3 13.3 64 254 0.8 2.8 1009.7 0.0000 6.6000
16:08 21 13.2 61 270 1.1 2.8 1009.9 0.0000 6.6000
16:18 21.5 13.2 59 205 1.1 3.3 1010 0.0000 6.6000
16:27 21.1 13.3 61 227 1.1 4.2 1010 0.0000 6.6000
16:37 21.2 13.1 60 257 1.1 4.4 1010 0.0000 6.6000
16:48 21 12.7 59 185 1.4 2.8 1010 0.0000 6.6000
17:28 21.2 12.6 58 241 1.4 4.4 1009.9 0.0000 6.6000
17:38 21.1 12.5 58 270 0.8 2.5 1010.2 0.0000 6.6000
17:48 21.3 13 59 270 0.6 2.2 1010.1 0.0000 6.6000
18:09 21.1 12.8 59 198 0.8 3.3 1010.2 0.0000 6.6000
18:18 21.4 12.3 56 241 1.1 3.9 1010.2 0.0000 6.6000
18:29 21.4 12.3 56 222 0.8 2.2 1010.2 0.0000 6.6000
18:39 21.4 12.3 56 210 1.1 2.8 1010.1 0.0000 6.6000
18:49 21.3 12.4 57 217 0.8 2.2 1010.3 0.0000 6.6000
18:58 21.2 12.1 56 281 0.8 2.2 1010.2 0.0000 6.6000
19:09 21.2 12.1 56 270 0.8 2.8 1010.2 0.0000 6.6000
19:19 20.9 11.5 55 213 0.8 2.2 1010.2 0.0000 6.6000
19:29 20.8 11.7 56 270 0.6 1.4 1010.1 0.0000 6.6000
19:39 20.8 11.7 56 233 0.6 1.4 1010 0.0000 6.6000
19:49 20.5 11.4 56 243 0.6 2.2 1010.1 0.0000 6.6000
19:59 19.9 11.1 57 270 0.8 2.2 1010.2 0.0000 6.6000
20:09 19.5 11 58 237 0.8 2.8 1010.2 0.0000 6.6000
20:20 18.9 11 60 225 0.6 1.4 1010.2 0.0000 6.6000
20:30 18.5 10.8 61 229 0.6 2.5 1010.3 0.0000 6.6000
20:39 18 10.9 63 198 0.3 1.1 1010.4 0.0000 6.6000
20:49 17.7 10.6 63 247 0.8 3.1 1010.5 0.0000 6.6000
21:00 17.4 10.3 63 203 0.8 2.8 1010.5 0.0000 6.6000
21:10 17 10.4 65 166 0.6 1.7 1010.5 0.0000 6.6000
21:20 16.6 10.2 66 225 0.6 1.4 1010.5 0.0000 6.6000
21:30 16.3 10.4 68 186 0.3 1.1 1010.7 0.0000 6.6000
21:40 16.1 10.4 69 202 0.6 2.2 1010.4 0.0000 6.6000
21:50 15.8 10.3 70 218 0.3 1.7 1010.6 0.0000 6.6000
22:00 15.6 10.4 71 210 0.6 1.4 1010.6 0.0000 6.6000
22:11 15.5 10.3 71 140 0.3 1.1 1010.6 0.0000 6.6000
22:20 15.3 9.9 70 188 0.6 1.4 1010.5 0.0000 6.6000
22:30 15.1 9.7 70 210 0.6 1.7 1010.6 0.0000 6.6000
22:41 15 9.6 70 153 0.3 0.8 1010.6 0.0000 6.6000
22:51 14.8 9.6 71 225 0.3 1.1 1010.7 0.0000 6.6000
23:01 14.6 9.6 72 203 0.6 1.4 1010.8 0.0000 6.6000
23:10 14.5 9.7 73 159 0.6 1.9 1010.9 0.0000 6.6000
23:21 14.3 9.7 74 245 0.6 1.4 1010.8 0.0000 6.6000
23:31 14.2 9.6 74 225 0.6 1.4 1010.9 0.0000 6.6000
23:41 14.1 9.7 75 184 0.6 1.4 1010.8 0.0000 6.6000
23:51 14 9.8 76 225 0.6 1.7 1011 0.0000 6.6000

DAY STATISTIC

2020-07-03
TEMPERATURE
AVERAGE
17.2
HIGH
21.5
16:18
LOW
12.9
04:22
PRESSURE
AVERAGE
1007.8
HIGH
1011.0
23:51
LOW
1003.6
01:21
DEWPOINT
AVERAGE
12.5
HIGH
15.1
08:24
LOW
9.6
22:41
HUMIDITY
AVERAGE
76
HIGH
95
05:02
LOW
55
19:19
WIND SPEED
AVERAGE
0.7
HIGH
1.4
13:26
WIND GUST
AVERAGE
2.0
HIGH
4.4
15:27
WIND DIRECTION
PREVAILING
SW
44.3%
N
0.0
NE
0.0
E
0.0
SE
10.7
S
12.2
SW
44.3
W
30.5
NW
2.3
PRECIPITATION
RAIN HOUR
4.6
RAIN DAY
6.6
TEMPERATURE (°C)
LOW
12.9
HIGH
21.5
AVERAGE
17.2
PRESSURE (hpa)
LOW
1003.6
HIGH
1011.0
AVERAGE
1007.8
DEVICE